Time;durP1;ratioP1;P1;durP2;ratioP2;P2;SDS_P1;SDS_P2;PMS_P1;PMS_P2;Temp;Humidity;BMP_temperature;BMP_pressure;BME280_temperature;BME280_humidity;BME280_pressure;Samples;Min_cycle;Max_cycle;Signal;HPM_P1;HPM_P2
2023/07/19 00:00:00;;;;;;;;;;;22.80;60.70;;;;;;5072879;28;19920;-83
2023/07/19 00:02:26;;;;;;;;;;;22.80;60.50;;;;;;5055517;28;20513;-83
2023/07/19 00:04:52;;;;;;;;;;;22.80;60.50;;;;;;5072892;28;20019;-82
2023/07/19 00:07:18;;;;;;;;;;;22.80;60.60;;;;;;5073214;28;19916;-79
2023/07/19 00:09:43;;;;;;;;;;;22.80;60.60;;;;;;5055809;28;20338;-82
2023/07/19 00:12:09;;;;;;;;;;;22.80;60.60;;;;;;5055296;28;19923;-80
2023/07/19 00:14:35;;;;;;;;;;;22.70;60.70;;;;;;5073808;28;19917;-82
2023/07/19 00:17:01;;;;;;;;;;;22.70;61.10;;;;;;5073021;28;20492;-82
2023/07/19 00:19:27;;;;;;;;;;;22.60;60.90;;;;;;5055803;28;19928;-80
2023/07/19 00:21:53;;;;;;;;;;;22.60;61.10;;;;;;5055385;28;19919;-81
2023/07/19 00:24:19;;;;;;;;;;;22.60;61.00;;;;;;5072271;28;19975;-80
2023/07/19 00:26:45;;;;;;;;;;;22.60;61.40;;;;;;5073022;28;19959;-82
2023/07/19 00:29:11;;;;;;;;;;;22.60;61.30;;;;;;5071628;28;20007;-82
2023/07/19 00:31:37;;;;;;;;;;;22.60;61.10;;;;;;5071896;28;19918;-79
2023/07/19 00:34:03;;;;;;;;;;;22.60;61.60;;;;;;5072005;28;19928;-79
2023/07/19 00:36:29;;;;;;;;;;;22.60;61.40;;;;;;5072742;28;19916;-79
2023/07/19 00:38:55;;;;;;;;;;;22.50;61.70;;;;;;5073407;28;19967;-83
2023/07/19 00:41:20;;;;;;;;;;;22.50;61.60;;;;;;5071509;28;19920;-79
2023/07/19 00:43:47;;;;;;;;;;;22.50;61.50;;;;;;5055588;28;19981;-80
2023/07/19 00:46:14;;;;;;;;;;;22.50;61.40;;;;;;5071398;28;19917;-82
2023/07/19 00:49:00;;;;;;;;;;;22.40;61.90;;;;;;5055093;28;20388;-81
2023/07/19 00:51:26;;;;;;;;;;;22.40;62.30;;;;;;5073008;28;19923;-79
2023/07/19 00:53:53;;;;;;;;;;;22.30;62.40;;;;;;5055184;28;19920;-78
2023/07/19 00:56:20;;;;;;;;;;;22.30;62.30;;;;;;5071404;28;19913;-80
2023/07/19 00:58:49;;;;;;;;;;;22.40;62.20;;;;;;5055195;28;19921;-82
2023/07/19 01:01:15;;;;;;;;;;;22.40;62.20;;;;;;5054837;28;19964;-80
2023/07/19 01:03:41;;;;;;;;;;;22.40;62.20;;;;;;5071790;28;20404;-83
2023/07/19 01:06:08;;;;;;;;;;;22.40;62.20;;;;;;5071421;28;19912;-79
2023/07/19 01:08:34;;;;;;;;;;;22.40;62.40;;;;;;5055139;28;20391;-79
2023/07/19 01:11:01;;;;;;;;;;;22.50;62.40;;;;;;5071553;28;20293;-83
2023/07/19 01:13:27;;;;;;;;;;;22.50;62.30;;;;;;5071827;28;19946;-79
2023/07/19 01:15:53;;;;;;;;;;;22.50;62.60;;;;;;5072658;28;19956;-78
2023/07/19 01:18:19;;;;;;;;;;;22.50;62.50;;;;;;5055141;28;20284;-83
2023/07/19 01:20:45;;;;;;;;;;;22.50;62.50;;;;;;5071695;28;19925;-79
2023/07/19 01:23:12;;;;;;;;;;;22.50;62.10;;;;;;5054697;28;20014;-79
2023/07/19 01:25:37;;;;;;;;;;;22.60;61.80;;;;;;5071777;28;19927;-79
2023/07/19 01:28:04;;;;;;;;;;;22.50;62.50;;;;;;5071637;28;20361;-79
2023/07/19 01:30:31;;;;;;;;;;;22.60;62.60;;;;;;5071229;28;19920;-79
2023/07/19 01:32:56;;;;;;;;;;;22.50;62.10;;;;;;5071799;28;20339;-79
2023/07/19 01:35:23;;;;;;;;;;;22.50;62.80;;;;;;5054712;28;19928;-83
2023/07/19 01:37:49;;;;;;;;;;;22.50;62.80;;;;;;5054961;28;20155;-83
2023/07/19 01:40:15;;;;;;;;;;;22.50;63.30;;;;;;5072407;28;20391;-83
2023/07/19 01:42:41;;;;;;;;;;;22.40;63.10;;;;;;5075201;28;20323;-79
2023/07/19 01:45:07;;;;;;;;;;;22.40;62.60;;;;;;5075057;28;19978;-83
2023/07/19 01:47:33;;;;;;;;;;;22.40;63.30;;;;;;5075454;28;20258;-81
2023/07/19 01:50:00;;;;;;;;;;;22.40;62.60;;;;;;5058666;28;19921;-79
2023/07/19 01:52:26;;;;;;;;;;;22.40;63.00;;;;;;5057849;28;20380;-83
2023/07/19 01:54:52;;;;;;;;;;;22.30;63.50;;;;;;5058601;28;19928;-80
2023/07/19 01:57:18;;;;;;;;;;;22.20;63.60;;;;;;5074445;28;20034;-80
2023/07/19 01:59:44;;;;;;;;;;;22.30;63.60;;;;;;5076470;28;19920;-79
2023/07/19 02:02:10;;;;;;;;;;;22.30;63.60;;;;;;5057877;28;19912;-83
2023/07/19 02:04:36;;;;;;;;;;;22.30;63.70;;;;;;5075110;28;19921;-79
2023/07/19 02:07:01;;;;;;;;;;;22.20;63.70;;;;;;5057450;28;19916;-83
2023/07/19 02:09:27;;;;;;;;;;;22.20;63.60;;;;;;5074695;28;19927;-79
2023/07/19 02:11:53;;;;;;;;;;;22.20;63.70;;;;;;5074172;28;19912;-80
2023/07/19 02:14:19;;;;;;;;;;;22.20;63.80;;;;;;5074839;28;19927;-83
2023/07/19 02:16:45;;;;;;;;;;;22.20;63.70;;;;;;5075334;28;19923;-80
2023/07/19 02:19:11;;;;;;;;;;;22.20;63.50;;;;;;5074654;28;19920;-80
2023/07/19 02:21:37;;;;;;;;;;;22.10;63.70;;;;;;5074072;28;19967;-83
2023/07/19 02:24:03;;;;;;;;;;;22.10;63.70;;;;;;5057834;28;19921;-80
2023/07/19 02:26:29;;;;;;;;;;;22.10;63.00;;;;;;5075045;28;20413;-79
2023/07/19 02:28:55;;;;;;;;;;;22.00;63.60;;;;;;5075568;28;19931;-84
2023/07/19 02:31:20;;;;;;;;;;;22.00;63.90;;;;;;5074057;28;20365;-79
2023/07/19 02:33:48;;;;;;;;;;;22.00;63.90;;;;;;5057716;28;20102;-83
2023/07/19 02:36:14;;;;;;;;;;;22.00;64.00;;;;;;5056921;28;19917;-83
2023/07/19 02:38:40;;;;;;;;;;;21.90;63.90;;;;;;5074305;28;19958;-79
2023/07/19 02:41:07;;;;;;;;;;;21.90;63.90;;;;;;5073639;28;19912;-84
2023/07/19 02:43:33;;;;;;;;;;;21.90;64.00;;;;;;5057758;28;19912;-84
2023/07/19 02:45:59;;;;;;;;;;;21.80;64.10;;;;;;5073643;28;19919;-79
2023/07/19 02:48:25;;;;;;;;;;;21.80;64.40;;;;;;5057217;28;19913;-84
2023/07/19 02:50:51;;;;;;;;;;;21.70;64.70;;;;;;5057087;28;20285;-81
2023/07/19 02:53:17;;;;;;;;;;;21.70;64.90;;;;;;5073555;28;19956;-79
2023/07/19 02:55:44;;;;;;;;;;;21.60;65.00;;;;;;5073839;28;19931;-83
2023/07/19 02:58:10;;;;;;;;;;;21.60;64.80;;;;;;5074090;28;19912;-83
2023/07/19 03:00:55;;;;;;;;;;;21.50;64.60;;;;;;5073394;28;19966;-82
2023/07/19 03:03:21;;;;;;;;;;;21.50;65.40;;;;;;5073806;28;19919;-81
2023/07/19 03:05:47;;;;;;;;;;;21.40;65.30;;;;;;5056683;28;19924;-83
2023/07/19 03:08:13;;;;;;;;;;;21.30;65.60;;;;;;5073805;28;19912;-83
2023/07/19 03:10:39;;;;;;;;;;;21.30;65.30;;;;;;5075228;28;19927;-79
2023/07/19 03:13:05;;;;;;;;;;;21.40;65.40;;;;;;5073540;28;19913;-84
2023/07/19 03:15:33;;;;;;;;;;;21.40;64.60;;;;;;5073378;28;19924;-83
2023/07/19 03:18:00;;;;;;;;;;;21.50;65.20;;;;;;5056889;28;19913;-83
2023/07/19 03:20:27;;;;;;;;;;;21.40;65.10;;;;;;5073058;28;19921;-80
2023/07/19 03:23:13;;;;;;;;;;;21.40;64.60;;;;;;5056910;28;20008;-81
2023/07/19 03:25:39;;;;;;;;;;;21.50;65.10;;;;;;5074793;28;19920;-83
2023/07/19 03:28:05;;;;;;;;;;;21.40;65.00;;;;;;5056484;28;20375;-80
2023/07/19 03:30:31;;;;;;;;;;;21.40;65.80;;;;;;5072869;28;20321;-80
2023/07/19 03:32:57;;;;;;;;;;;21.30;66.00;;;;;;5074253;28;20328;-83
2023/07/19 03:35:23;;;;;;;;;;;21.20;66.20;;;;;;5056055;28;19920;-83
2023/07/19 03:37:49;;;;;;;;;;;21.20;66.30;;;;;;5056466;28;19912;-83
2023/07/19 03:40:15;;;;;;;;;;;21.10;66.30;;;;;;5072842;28;19924;-84
2023/07/19 03:42:41;;;;;;;;;;;21.20;65.70;;;;;;5056224;28;19912;-80
2023/07/19 03:45:07;;;;;;;;;;;21.30;66.10;;;;;;5074069;28;20392;-79
2023/07/19 03:47:34;;;;;;;;;;;21.20;66.70;;;;;;5056146;28;19959;-83
2023/07/19 03:50:00;;;;;;;;;;;21.20;66.70;;;;;;5056287;28;19920;-83
2023/07/19 03:52:26;;;;;;;;;;;21.10;67.50;;;;;;5072494;28;19912;-84
2023/07/19 03:54:53;;;;;;;;;;;21.10;67.20;;;;;;5072998;28;20007;-79
2023/07/19 03:57:19;;;;;;;;;;;21.10;66.70;;;;;;5072674;28;19912;-79
2023/07/19 03:59:45;;;;;;;;;;;21.10;66.80;;;;;;5072843;28;19966;-79
2023/07/19 04:02:11;;;;;;;;;;;21.20;66.80;;;;;;5072059;28;20293;-84
2023/07/19 04:04:37;;;;;;;;;;;21.20;67.10;;;;;;5072893;28;19927;-79
2023/07/19 04:07:03;;;;;;;;;;;21.20;67.00;;;;;;5073349;28;19912;-83
2023/07/19 04:09:29;;;;;;;;;;;21.20;66.60;;;;;;5056156;28;19942;-78
2023/07/19 04:11:55;;;;;;;;;;;21.30;67.40;;;;;;5072081;28;20309;-83
2023/07/19 04:14:21;;;;;;;;;;;21.30;67.40;;;;;;5056094;28;19920;-78
2023/07/19 04:16:47;;;;;;;;;;;21.30;67.10;;;;;;5072119;28;20003;-84
2023/07/19 04:19:13;;;;;;;;;;;21.30;66.90;;;;;;5072320;28;20007;-84
2023/07/19 04:21:39;;;;;;;;;;;21.40;66.80;;;;;;5055717;28;19912;-83
2023/07/19 04:24:05;;;;;;;;;;;21.40;67.20;;;;;;5072406;28;19984;-82
2023/07/19 04:26:31;;;;;;;;;;;21.40;66.50;;;;;;5073112;28;19912;-84
2023/07/19 04:28:57;;;;;;;;;;;21.40;67.20;;;;;;5072207;28;19924;-79
2023/07/19 04:31:23;;;;;;;;;;;21.50;67.70;;;;;;5072019;28;19952;-83
2023/07/19 04:33:50;;;;;;;;;;;21.50;67.70;;;;;;5072164;28;19921;-82
2023/07/19 04:36:16;;;;;;;;;;;21.50;68.20;;;;;;5055103;28;19919;-84
2023/07/19 04:38:43;;;;;;;;;;;21.60;67.30;;;;;;5072460;28;19913;-81
2023/07/19 04:41:09;;;;;;;;;;;21.60;67.30;;;;;;5071440;28;19919;-79
2023/07/19 04:43:35;;;;;;;;;;;21.70;67.10;;;;;;5067915;28;19916;-84
2023/07/19 04:46:01;;;;;;;;;;;21.80;67.00;;;;;;5071808;28;20365;-80
2023/07/19 04:48:27;;;;;;;;;;;21.90;67.30;;;;;;5055182;28;20438;-84
2023/07/19 04:50:54;;;;;;;;;;;21.90;66.40;;;;;;5071791;28;19916;-78
2023/07/19 04:53:21;;;;;;;;;;;22.00;66.80;;;;;;5071740;28;19993;-84
2023/07/19 04:55:50;;;;;;;;;;;22.00;66.80;;;;;;5071936;28;19916;-79
2023/07/19 04:58:16;;;;;;;;;;;22.00;66.60;;;;;;5072230;28;19916;-80
2023/07/19 05:00:42;;;;;;;;;;;22.10;66.30;;;;;;5072812;28;19916;-80
2023/07/19 05:03:08;;;;;;;;;;;22.20;66.30;;;;;;5072174;28;19917;-82
2023/07/19 05:05:34;;;;;;;;;;;22.30;66.20;;;;;;5071760;28;19917;-84
2023/07/19 05:08:00;;;;;;;;;;;22.40;66.10;;;;;;5055120;28;20054;-79
2023/07/19 05:10:26;;;;;;;;;;;22.40;65.90;;;;;;5054624;28;20019;-78
2023/07/19 05:12:52;;;;;;;;;;;22.50;66.20;;;;;;5072991;28;19917;-84
2023/07/19 05:15:18;;;;;;;;;;;22.50;66.10;;;;;;5072873;28;19924;-84
2023/07/19 05:17:43;;;;;;;;;;;22.60;66.20;;;;;;5075847;28;19916;-80
2023/07/19 05:20:10;;;;;;;;;;;22.60;66.00;;;;;;5058963;28;19917;-82
2023/07/19 05:22:36;;;;;;;;;;;22.50;66.00;;;;;;5075429;28;20124;-82
2023/07/19 05:25:03;;;;;;;;;;;22.40;66.70;;;;;;5075527;28;19920;-83
2023/07/19 05:27:29;;;;;;;;;;;22.40;66.10;;;;;;5075572;28;19916;-80
2023/07/19 05:29:55;;;;;;;;;;;22.40;66.80;;;;;;5075485;28;19974;-83
2023/07/19 05:32:21;;;;;;;;;;;22.50;66.60;;;;;;5074985;28;20340;-83
2023/07/19 05:34:47;;;;;;;;;;;22.50;66.30;;;;;;5075657;28;19982;-83
2023/07/19 05:37:13;;;;;;;;;;;22.60;66.50;;;;;;5074975;28;19912;-82
2023/07/19 05:39:38;;;;;;;;;;;22.50;66.30;;;;;;5075422;28;19966;-80
2023/07/19 05:42:05;;;;;;;;;;;22.50;66.60;;;;;;5075950;28;20011;-83
2023/07/19 05:44:31;;;;;;;;;;;22.40;66.00;;;;;;5058674;28;19920;-80
2023/07/19 05:46:57;;;;;;;;;;;22.50;66.50;;;;;;5076099;28;20010;-83
2023/07/19 05:49:23;;;;;;;;;;;22.40;66.40;;;;;;5075326;28;20023;-82
2023/07/19 05:51:50;;;;;;;;;;;22.40;65.90;;;;;;5074656;28;19913;-83
2023/07/19 05:54:16;;;;;;;;;;;22.40;66.50;;;;;;5058808;28;19920;-84
2023/07/19 05:56:42;;;;;;;;;;;22.50;66.30;;;;;;5074552;28;19919;-80
2023/07/19 05:59:08;;;;;;;;;;;22.50;66.90;;;;;;5076164;28;20373;-83
2023/07/19 06:01:34;;;;;;;;;;;22.60;66.60;;;;;;5057722;28;19965;-79
2023/07/19 06:04:00;;;;;;;;;;;22.60;66.70;;;;;;5075199;28;19927;-81
2023/07/19 06:06:26;;;;;;;;;;;22.70;66.40;;;;;;5074558;28;20003;-80
2023/07/19 06:08:52;;;;;;;;;;;22.70;66.40;;;;;;5074768;28;19962;-83
2023/07/19 06:11:18;;;;;;;;;;;22.90;66.60;;;;;;5075504;28;20372;-82
2023/07/19 06:13:44;;;;;;;;;;;23.00;66.40;;;;;;5057866;28;19918;-82
2023/07/19 06:16:10;;;;;;;;;;;23.10;65.60;;;;;;5075794;28;20284;-80
2023/07/19 06:18:36;;;;;;;;;;;23.10;66.60;;;;;;5074610;28;19912;-83
2023/07/19 06:21:02;;;;;;;;;;;23.10;66.50;;;;;;5075753;28;20417;-79
2023/07/19 06:23:28;;;;;;;;;;;23.20;66.50;;;;;;5074367;28;20415;-82
2023/07/19 06:25:54;;;;;;;;;;;23.40;66.80;;;;;;5057074;28;20012;-81
2023/07/19 06:28:20;;;;;;;;;;;23.60;66.80;;;;;;5073647;28;19922;-81
2023/07/19 06:30:46;;;;;;;;;;;23.60;66.80;;;;;;5074352;28;20330;-80
2023/07/19 06:33:12;;;;;;;;;;;23.70;66.50;;;;;;5075545;28;19965;-85
2023/07/19 06:35:37;;;;;;;;;;;23.60;67.10;;;;;;5074047;28;19921;-84
2023/07/19 06:38:03;;;;;;;;;;;23.50;67.60;;;;;;5057422;28;19916;-79
2023/07/19 06:40:29;;;;;;;;;;;23.50;68.30;;;;;;5075195;28;19935;-79
2023/07/19 06:42:55;;;;;;;;;;;23.50;68.10;;;;;;5074095;28;19912;-83
2023/07/19 06:45:21;;;;;;;;;;;23.70;67.50;;;;;;5073828;28;20007;-83
2023/07/19 06:47:47;;;;;;;;;;;23.70;66.90;;;;;;5074062;28;20014;-82
2023/07/19 06:50:13;;;;;;;;;;;23.90;66.40;;;;;;5057120;28;20285;-79
2023/07/19 06:52:39;;;;;;;;;;;24.00;66.00;;;;;;5057197;28;19917;-82
2023/07/19 06:55:05;;;;;;;;;;;24.00;65.90;;;;;;5057291;28;19921;-84
2023/07/19 06:57:31;;;;;;;;;;;24.10;65.70;;;;;;5073856;28;19999;-83
2023/07/19 06:59:58;;;;;;;;;;;24.30;65.00;;;;;;5075490;28;19924;-80
2023/07/19 07:02:24;;;;;;;;;;;24.50;64.00;;;;;;5073212;28;19916;-81
2023/07/19 07:04:52;;;;;;;;;;;24.70;63.50;;;;;;5057255;28;19956;-79
2023/07/19 07:07:19;;;;;;;;;;;24.90;62.90;;;;;;5073170;28;19912;-82
2023/07/19 07:09:45;;;;;;;;;;;25.10;62.30;;;;;;5073716;28;19924;-79
2023/07/19 07:12:12;;;;;;;;;;;25.20;62.00;;;;;;5073176;28;20507;-80
2023/07/19 07:14:39;;;;;;;;;;;25.30;61.70;;;;;;5073656;28;20020;-81
2023/07/19 07:17:07;;;;;;;;;;;25.40;61.50;;;;;;5073069;28;19912;-83
2023/07/19 07:19:33;;;;;;;;;;;25.50;61.30;;;;;;5056897;28;19927;-80
2023/07/19 07:21:59;;;;;;;;;;;25.70;60.80;;;;;;5056286;28;20010;-79
2023/07/19 07:24:25;;;;;;;;;;;25.90;60.20;;;;;;5073483;28;19952;-82
2023/07/19 07:26:51;;;;;;;;;;;25.90;60.20;;;;;;5072722;28;19916;-80
2023/07/19 07:29:17;;;;;;;;;;;26.00;60.70;;;;;;5074574;28;20413;-79
2023/07/19 07:31:43;;;;;;;;;;;26.10;59.80;;;;;;5074090;28;20293;-82
2023/07/19 07:34:09;;;;;;;;;;;26.30;59.80;;;;;;5072862;28;20014;-79
2023/07/19 07:36:35;;;;;;;;;;;26.30;59.10;;;;;;5055725;28;19916;-84
2023/07/19 07:39:02;;;;;;;;;;;26.30;58.00;;;;;;5072746;28;19970;-84
2023/07/19 07:41:28;;;;;;;;;;;26.50;58.50;;;;;;5055962;28;19913;-84
2023/07/19 07:43:54;;;;;;;;;;;26.60;58.20;;;;;;5056458;28;20280;-84
2023/07/19 07:46:20;;;;;;;;;;;26.70;57.70;;;;;;5072634;28;19912;-85
2023/07/19 07:48:46;;;;;;;;;;;26.90;57.60;;;;;;5071745;28;19924;-84
2023/07/19 07:51:12;;;;;;;;;;;26.90;57.00;;;;;;5076661;28;19922;-84
2023/07/19 07:53:38;;;;;;;;;;;27.10;57.10;;;;;;5074563;28;19918;-85
2023/07/19 07:56:04;;;;;;;;;;;27.30;56.60;;;;;;5092915;28;19912;-78
2023/07/19 07:58:30;;;;;;;;;;;27.40;55.30;;;;;;5092937;28;20322;-85
2023/07/19 08:00:56;;;;;;;;;;;27.50;55.70;;;;;;5092453;28;20049;-78
2023/07/19 08:03:22;;;;;;;;;;;27.70;55.30;;;;;;5059266;28;19912;-80
2023/07/19 08:05:48;;;;;;;;;;;27.90;54.90;;;;;;5072112;28;19920;-79
2023/07/19 08:08:14;;;;;;;;;;;28.00;54.40;;;;;;5072660;28;19912;-79
2023/07/19 08:10:40;;;;;;;;;;;28.30;53.70;;;;;;5055788;28;20280;-85
2023/07/19 08:13:07;;;;;;;;;;;28.70;53.20;;;;;;5072166;28;19912;-78
2023/07/19 08:15:33;;;;;;;;;;;28.90;51.90;;;;;;5073705;28;19920;-84
2023/07/19 08:18:00;;;;;;;;;;;29.20;52.10;;;;;;5072393;28;19927;-85
2023/07/19 08:20:26;;;;;;;;;;;29.40;51.00;;;;;;5071184;28;20274;-78
2023/07/19 08:22:52;;;;;;;;;;;29.60;51.10;;;;;;5066673;28;19959;-79
2023/07/19 08:25:19;;;;;;;;;;;29.60;50.30;;;;;;5092412;28;19920;-85
2023/07/19 08:27:45;;;;;;;;;;;29.70;50.80;;;;;;5075551;28;19951;-84
2023/07/19 08:30:17;;;;;;;;;;;29.90;50.10;;;;;;5075202;28;20383;-79
2023/07/19 08:32:46;;;;;;;;;;;30.00;50.10;;;;;;5080093;28;19970;-79
2023/07/19 08:35:32;;;;;;;;;;;29.90;49.20;;;;;;5072188;28;19927;-80
2023/07/19 08:37:57;;;;;;;;;;;30.00;49.60;;;;;;5070505;28;19920;-85
2023/07/19 08:40:24;;;;;;;;;;;29.90;48.80;;;;;;5071894;28;20428;-79
2023/07/19 08:42:50;;;;;;;;;;;30.10;48.60;;;;;;5073256;28;20378;-77
2023/07/19 08:45:17;;;;;;;;;;;30.30;48.40;;;;;;5055366;28;20012;-81
2023/07/19 08:47:44;;;;;;;;;;;30.50;47.60;;;;;;5072037;28;19944;-79
2023/07/19 08:50:11;;;;;;;;;;;30.60;47.10;;;;;;5054765;28;19993;-80
2023/07/19 08:52:37;;;;;;;;;;;30.70;46.00;;;;;;5055227;28;20015;-85
2023/07/19 08:55:03;;;;;;;;;;;30.90;46.10;;;;;;5055363;28;20288;-84
2023/07/19 08:57:29;;;;;;;;;;;31.20;45.60;;;;;;5071687;28;20429;-79
2023/07/19 08:59:55;;;;;;;;;;;31.20;46.30;;;;;;5072009;28;19927;-83
2023/07/19 09:02:21;;;;;;;;;;;31.60;45.30;;;;;;5072586;28;20425;-83
2023/07/19 09:05:06;;;;;;;;;;;31.50;43.50;;;;;;5071434;28;19924;-79
2023/07/19 09:07:33;;;;;;;;;;;31.50;44.00;;;;;;5054728;28;20345;-84
2023/07/19 09:09:59;;;;;;;;;;;31.60;44.00;;;;;;5071713;28;19921;-84
2023/07/19 09:12:32;;;;;;;;;;;31.80;43.10;;;;;;5054673;28;19923;-79
2023/07/19 09:15:00;;;;;;;;;;;32.20;43.40;;;;;;5077405;28;19920;-79
2023/07/19 09:17:28;;;;;;;;;;;32.90;42.10;;;;;;5056141;28;19917;-80
2023/07/19 09:19:54;;;;;;;;;;;33.50;40.20;;;;;;5072008;28;20045;-79
2023/07/19 09:22:20;;;;;;;;;;;34.20;39.90;;;;;;5072324;28;19980;-81
2023/07/19 09:25:12;;;;;;;;;;;34.70;37.80;;;;;;5071889;28;20570;-78
2023/07/19 09:27:57;;;;;;;;;;;35.20;37.70;;;;;;5071010;28;19959;-85
2023/07/19 09:30:23;;;;;;;;;;;36.20;36.10;;;;;;5073019;28;19924;-78
2023/07/19 09:33:08;;;;;;;;;;;36.70;34.80;;;;;;5071553;28;19935;-85
2023/07/19 09:35:34;;;;;;;;;;;37.40;34.30;;;;;;5054570;28;20011;-85
2023/07/19 09:38:00;;;;;;;;;;;38.00;34.30;;;;;;5071571;28;19960;-84
2023/07/19 09:40:26;;;;;;;;;;;38.70;32.20;;;;;;5071285;28;19920;-85
2023/07/19 09:42:51;;;;;;;;;;;39.20;32.00;;;;;;5072486;28;19912;-77
2023/07/19 09:45:18;;;;;;;;;;;39.80;30.20;;;;;;5070667;28;19924;-77
2023/07/19 09:47:44;;;;;;;;;;;40.50;30.00;;;;;;5071162;28;19920;-76
2023/07/19 09:50:12;;;;;;;;;;;41.00;30.00;;;;;;5070835;28;19920;-86
2023/07/19 09:52:39;;;;;;;;;;;41.30;28.40;;;;;;5054823;28;19920;-76
2023/07/19 09:55:06;;;;;;;;;;;41.90;28.50;;;;;;5054525;28;20452;-79
2023/07/19 09:57:34;;;;;;;;;;;42.30;27.20;;;;;;5069817;28;19912;-84
2023/07/19 10:00:01;;;;;;;;;;;42.70;25.90;;;;;;5055380;28;20002;-85
2023/07/19 10:02:27;;;;;;;;;;;43.40;25.80;;;;;;5056355;28;19917;-77
2023/07/19 10:04:54;;;;;;;;;;;43.70;24.90;;;;;;5067407;28;20384;-78
2023/07/19 10:07:21;;;;;;;;;;;44.20;25.00;;;;;;5074841;28;20265;-86
2023/07/19 10:09:50;;;;;;;;;;;44.50;24.60;;;;;;5074835;28;19920;-76
2023/07/19 10:12:16;;;;;;;;;;;45.00;23.20;;;;;;5068810;28;19920;-77
2023/07/19 10:15:20;;;;;;;;;;;45.50;23.90;;;;;;5062474;28;19967;-86
2023/07/19 10:17:59;;;;;;;;;;;46.20;22.80;;;;;;5056092;28;19916;-76
2023/07/19 10:20:45;;;;;;;;;;;46.50;22.10;;;;;;5037226;28;19924;-76
2023/07/19 10:23:13;;;;;;;;;;;47.10;22.00;;;;;;5054244;28;20346;-83
2023/07/19 10:26:06;;;;;;;;;;;47.60;22.10;;;;;;5053892;28;19920;-84
2023/07/19 10:28:32;;;;;;;;;;;48.20;21.70;;;;;;5054287;28;20335;-83
2023/07/19 10:30:58;;;;;;;;;;;48.80;20.80;;;;;;5053662;28;19966;-76
2023/07/19 10:33:43;;;;;;;;;;;49.30;20.30;;;;;;5053893;28;19956;-78
2023/07/19 10:36:09;;;;;;;;;;;48.90;19.60;;;;;;5057258;28;19927;-79
2023/07/19 10:38:36;;;;;;;;;;;48.00;19.80;;;;;;5073950;28;20373;-81
2023/07/19 10:41:05;;;;;;;;;;;48.20;20.30;;;;;;5073281;28;19952;-82
2023/07/19 10:43:32;;;;;;;;;;;48.80;19.90;;;;;;5056969;28;19912;-78
2023/07/19 10:46:00;;;;;;;;;;;49.00;19.30;;;;;;5073285;28;20336;-85
2023/07/19 10:48:44;;;;;;;;;;;49.70;18.90;;;;;;5073596;28;19913;-76
2023/07/19 10:51:10;;;;;;;;;;;49.80;18.70;;;;;;5074426;28;19947;-83
2023/07/19 10:53:56;;;;;;;;;;;50.30;18.20;;;;;;5073672;28;19920;-78
2023/07/19 10:56:22;;;;;;;;;;;50.70;18.20;;;;;;5074479;28;19924;-76
2023/07/19 10:58:48;;;;;;;;;;;50.80;18.20;;;;;;5075249;28;20333;-76
2023/07/19 11:01:17;;;;;;;;;;;51.30;18.30;;;;;;5069092;28;19926;-75
2023/07/19 11:03:47;;;;;;;;;;;51.00;17.90;;;;;;5056093;28;20019;-81
2023/07/19 11:06:13;;;;;;;;;;;50.50;17.30;;;;;;5048989;28;19923;-83
2023/07/19 11:08:39;;;;;;;;;;;50.20;17.20;;;;;;5072441;28;20345;-75
2023/07/19 11:11:07;;;;;;;;;;;50.30;18.20;;;;;;5072847;28;19924;-80
2023/07/19 11:13:34;;;;;;;;;;;51.20;17.30;;;;;;5073707;28;19916;-75
2023/07/19 11:16:01;;;;;;;;;;;51.80;17.70;;;;;;5074113;28;19924;-82
2023/07/19 11:18:45;;;;;;;;;;;52.30;17.00;;;;;;5072943;28;20342;-75
2023/07/19 11:21:11;;;;;;;;;;;52.90;15.30;;;;;;5072473;28;19916;-75
2023/07/19 11:23:44;;;;;;;;;;;52.40;16.30;;;;;;5074308;28;19932;-82
2023/07/19 11:26:28;;;;;;;;;;;52.40;16.50;;;;;;5056246;28;19916;-76
2023/07/19 11:28:56;;;;;;;;;;;52.60;16.30;;;;;;5072899;28;19920;-83
2023/07/19 11:31:40;;;;;;;;;;;53.30;16.60;;;;;;5055799;28;19913;-75
2023/07/19 11:34:26;;;;;;;;;;;53.80;15.60;;;;;;5073115;28;19920;-76
2023/07/19 11:36:52;;;;;;;;;;;54.30;15.90;;;;;;5073540;28;19982;-76
2023/07/19 11:39:21;;;;;;;;;;;54.20;15.30;;;;;;5074080;28;20035;-84
2023/07/19 11:41:48;;;;;;;;;;;54.60;15.50;;;;;;5072617;28;19924;-86
2023/07/19 11:44:33;;;;;;;;;;;54.90;14.40;;;;;;5072622;28;20269;-86
2023/07/19 11:46:59;;;;;;;;;;;54.90;15.10;;;;;;5072457;28;19916;-77
2023/07/19 11:49:25;;;;;;;;;;;55.20;15.40;;;;;;5072454;28;19916;-76
2023/07/19 11:51:51;;;;;;;;;;;55.20;14.80;;;;;;5072055;28;19923;-86
2023/07/19 11:54:16;;;;;;;;;;;55.20;15.40;;;;;;5055949;28;19924;-85
2023/07/19 11:56:42;;;;;;;;;;;55.10;15.10;;;;;;5073215;28;19923;-84
2023/07/19 11:59:09;;;;;;;;;;;55.30;15.00;;;;;;5072354;28;19926;-84
2023/07/19 12:01:36;;;;;;;;;;;55.60;14.30;;;;;;5073063;28;19969;-84
2023/07/19 12:04:02;;;;;;;;;;;54.40;14.60;;;;;;5072390;28;20335;-85
2023/07/19 12:06:29;;;;;;;;;;;52.60;15.40;;;;;;5055120;28;19966;-83
2023/07/19 12:08:55;;;;;;;;;;;51.20;15.90;;;;;;5072354;28;19916;-76
2023/07/19 12:11:21;;;;;;;;;;;50.60;16.40;;;;;;5055004;28;19923;-84
2023/07/19 12:13:48;;;;;;;;;;;50.20;17.20;;;;;;5072325;28;20406;-86
2023/07/19 12:16:14;;;;;;;;;;;50.10;17.50;;;;;;5055141;28;19966;-85
2023/07/19 12:18:40;;;;;;;;;;;49.40;18.20;;;;;;5072101;28;20429;-83
2023/07/19 12:21:06;;;;;;;;;;;50.20;18.40;;;;;;5071527;28;19916;-76
2023/07/19 12:23:32;;;;;;;;;;;51.50;17.30;;;;;;5071999;28;20011;-85
2023/07/19 12:25:58;;;;;;;;;;;52.20;16.80;;;;;;5070953;28;19920;-83
2023/07/19 12:28:24;;;;;;;;;;;52.60;16.30;;;;;;5073361;28;20007;-77
2023/07/19 12:30:50;;;;;;;;;;;52.80;15.50;;;;;;5071651;28;20395;-79
2023/07/19 12:33:17;;;;;;;;;;;53.30;14.80;;;;;;5071806;28;19912;-86
2023/07/19 12:35:46;;;;;;;;;;;53.50;14.10;;;;;;5055035;28;20258;-86
2023/07/19 12:38:13;;;;;;;;;;;53.40;13.50;;;;;;5073060;28;19920;-76
2023/07/19 12:40:39;;;;;;;;;;;53.50;13.50;;;;;;5071732;28;19958;-76
2023/07/19 12:43:05;;;;;;;;;;;53.60;13.50;;;;;;5071658;28;19974;-84
2023/07/19 12:45:31;;;;;;;;;;;53.30;13.50;;;;;;5073065;28;19916;-83
2023/07/19 12:47:57;;;;;;;;;;;52.90;13.40;;;;;;5054986;28;19924;-84
2023/07/19 12:50:24;;;;;;;;;;;52.40;14.30;;;;;;5073011;28;20262;-76
2023/07/19 12:52:51;;;;;;;;;;;51.70;13.70;;;;;;5071687;28;19920;-76
2023/07/19 12:55:17;;;;;;;;;;;50.70;14.80;;;;;;5071062;28;20270;-83
2023/07/19 12:57:43;;;;;;;;;;;49.70;15.40;;;;;;5072823;28;19921;-76
2023/07/19 13:00:13;;;;;;;;;;;48.60;16.10;;;;;;5054653;28;20344;-76
2023/07/19 13:02:39;;;;;;;;;;;47.40;17.00;;;;;;5071675;28;20266;-83
2023/07/19 13:05:05;;;;;;;;;;;46.50;17.70;;;;;;5054740;28;19912;-78
2023/07/19 13:07:31;;;;;;;;;;;45.70;18.90;;;;;;5071247;28;19920;-75
2023/07/19 13:09:57;;;;;;;;;;;45.00;20.50;;;;;;5054875;28;19916;-82
2023/07/19 13:12:23;;;;;;;;;;;44.30;21.20;;;;;;5054237;28;20022;-75
2023/07/19 13:14:50;;;;;;;;;;;43.60;21.40;;;;;;5054732;28;20376;-75
2023/07/19 13:17:17;;;;;;;;;;;43.00;22.30;;;;;;5054362;28;20059;-75
2023/07/19 13:19:45;;;;;;;;;;;42.40;23.10;;;;;;5071620;28;20003;-82
2023/07/19 13:22:11;;;;;;;;;;;41.80;24.30;;;;;;5071983;28;19920;-75
2023/07/19 13:24:37;;;;;;;;;;;41.30;24.90;;;;;;5071483;28;19934;-75
2023/07/19 13:27:04;;;;;;;;;;;40.90;25.90;;;;;;5070907;28;19920;-83
2023/07/19 13:29:30;;;;;;;;;;;40.40;26.60;;;;;;5054684;28;19916;-83
2023/07/19 13:31:56;;;;;;;;;;;39.90;27.00;;;;;;5054140;28;20003;-84
2023/07/19 13:34:22;;;;;;;;;;;39.60;28.00;;;;;;5054861;28;19935;-83
2023/07/19 13:36:48;;;;;;;;;;;39.20;28.60;;;;;;5073056;28;20364;-84
2023/07/19 13:39:14;;;;;;;;;;;38.80;28.60;;;;;;5076540;28;19920;-74
2023/07/19 13:41:40;;;;;;;;;;;38.60;29.20;;;;;;5057704;28;20014;-75
2023/07/19 13:44:06;;;;;;;;;;;38.40;29.00;;;;;;5075023;28;20049;-77
2023/07/19 13:46:35;;;;;;;;;;;38.00;30.90;;;;;;5074637;28;19928;-88
2023/07/19 13:49:02;;;;;;;;;;;37.50;32.40;;;;;;5075383;28;19957;-79
2023/07/19 13:51:28;;;;;;;;;;;36.60;36.30;;;;;;5074776;28;19924;-79
2023/07/19 13:53:54;;;;;;;;;;;35.90;37.40;;;;;;5075097;28;19916;-79
2023/07/19 13:56:20;;;;;;;;;;;35.30;37.50;;;;;;5075153;28;20433;-87
2023/07/19 13:58:46;;;;;;;;;;;34.80;37.50;;;;;;5075137;28;20323;-80
2023/07/19 14:01:12;;;;;;;;;;;33.90;42.80;;;;;;5074654;28;19926;-84
2023/07/19 14:03:38;;;;;;;;;;;31.70;51.40;;;;;;5058472;28;19977;-83
2023/07/19 14:06:04;;;;;;;;;;;29.90;55.40;;;;;;5074420;28;19927;-79
2023/07/19 14:08:30;;;;;;;;;;;29.30;57.70;;;;;;5076013;28;19913;-87
2023/07/19 14:10:56;;;;;;;;;;;28.80;58.10;;;;;;5057872;28;19971;-79
2023/07/19 14:13:22;;;;;;;;;;;28.70;56.30;;;;;;5075901;28;19912;-86
2023/07/19 14:15:48;;;;;;;;;;;28.60;54.60;;;;;;5074958;28;19923;-84